sensor_id;sensor_type;location;lat;lon;timestamp;temperature;humidity
21023;DHT22;10669;51.076;3.714;2022-08-14T00:01:14;24.90;1.00
21023;DHT22;10669;51.076;3.714;2022-08-14T00:03:40;25.10;1.00
21023;DHT22;10669;51.076;3.714;2022-08-14T00:06:05;25.00;1.00
21023;DHT22;10669;51.076;3.714;2022-08-14T00:08:31;24.60;1.00
21023;DHT22;10669;51.076;3.714;2022-08-14T00:10:57;24.50;1.00
21023;DHT22;10669;51.076;3.714;2022-08-14T00:13:25;24.40;1.00
21023;DHT22;10669;51.076;3.714;2022-08-14T00:15:55;24.30;1.00
21023;DHT22;10669;51.076;3.714;2022-08-14T00:18:22;24.20;1.00
21023;DHT22;10669;51.076;3.714;2022-08-14T00:20:49;24.20;1.00
21023;DHT22;10669;51.076;3.714;2022-08-14T00:23:16;24.10;1.00
21023;DHT22;10669;51.076;3.714;2022-08-14T00:25:45;24.10;1.00
21023;DHT22;10669;51.076;3.714;2022-08-14T00:28:12;24.20;1.00
21023;DHT22;10669;51.076;3.714;2022-08-14T00:30:38;24.10;1.00
21023;DHT22;10669;51.076;3.714;2022-08-14T00:33:04;24.30;1.00
21023;DHT22;10669;51.076;3.714;2022-08-14T00:35:31;24.40;1.00
21023;DHT22;10669;51.076;3.714;2022-08-14T00:37:56;24.50;1.00
21023;DHT22;10669;51.076;3.714;2022-08-14T00:40:22;24.50;1.00
21023;DHT22;10669;51.076;3.714;2022-08-14T00:42:48;24.60;1.00
21023;DHT22;10669;51.076;3.714;2022-08-14T00:45:15;24.40;1.00
21023;DHT22;10669;51.076;3.714;2022-08-14T00:47:43;24.40;1.00
21023;DHT22;10669;51.076;3.714;2022-08-14T00:50:12;24.40;1.00
21023;DHT22;10669;51.076;3.714;2022-08-14T00:52:38;24.50;1.00
21023;DHT22;10669;51.076;3.714;2022-08-14T00:55:07;24.70;1.00
21023;DHT22;10669;51.076;3.714;2022-08-14T00:57:35;24.70;1.00
21023;DHT22;10669;51.076;3.714;2022-08-14T01:00:12;24.80;1.00
21023;DHT22;10669;51.076;3.714;2022-08-14T01:02:41;24.70;1.00
21023;DHT22;10669;51.076;3.714;2022-08-14T01:05:08;24.70;1.00
21023;DHT22;10669;51.076;3.714;2022-08-14T01:07:49;24.90;1.00
21023;DHT22;10669;51.076;3.714;2022-08-14T01:10:16;24.80;1.00
21023;DHT22;10669;51.076;3.714;2022-08-14T01:12:43;24.70;1.00
21023;DHT22;10669;51.076;3.714;2022-08-14T01:15:09;24.60;1.00
21023;DHT22;10669;51.076;3.714;2022-08-14T01:17:35;24.60;1.00
21023;DHT22;10669;51.076;3.714;2022-08-14T01:20:19;24.60;1.00
21023;DHT22;10669;51.076;3.714;2022-08-14T01:23:06;24.60;1.00
21023;DHT22;10669;51.076;3.714;2022-08-14T01:25:33;24.50;1.00
21023;DHT22;10669;51.076;3.714;2022-08-14T01:27:59;24.20;1.00
21023;DHT22;10669;51.076;3.714;2022-08-14T01:30:25;24.20;1.00
21023;DHT22;10669;51.076;3.714;2022-08-14T01:32:51;24.10;1.00
21023;DHT22;10669;51.076;3.714;2022-08-14T01:35:18;24.10;1.00
21023;DHT22;10669;51.076;3.714;2022-08-14T01:37:45;24.10;1.00
21023;DHT22;10669;51.076;3.714;2022-08-14T01:40:11;24.30;1.00
21023;DHT22;10669;51.076;3.714;2022-08-14T01:42:36;24.10;1.00
21023;DHT22;10669;51.076;3.714;2022-08-14T01:45:03;24.00;1.00
21023;DHT22;10669;51.076;3.714;2022-08-14T01:47:36;23.80;1.00
21023;DHT22;10669;51.076;3.714;2022-08-14T01:50:04;23.80;1.00
21023;DHT22;10669;51.076;3.714;2022-08-14T01:52:37;23.80;1.00
21023;DHT22;10669;51.076;3.714;2022-08-14T01:55:07;23.70;1.00
21023;DHT22;10669;51.076;3.714;2022-08-14T01:57:34;23.70;1.00
21023;DHT22;10669;51.076;3.714;2022-08-14T02:00:06;23.70;1.00
21023;DHT22;10669;51.076;3.714;2022-08-14T02:02:37;23.60;1.00
21023;DHT22;10669;51.076;3.714;2022-08-14T02:05:03;23.40;1.00
21023;DHT22;10669;51.076;3.714;2022-08-14T02:07:29;23.50;1.00
21023;DHT22;10669;51.076;3.714;2022-08-14T02:09:56;23.60;1.00
21023;DHT22;10669;51.076;3.714;2022-08-14T02:12:22;23.80;1.00
21023;DHT22;10669;51.076;3.714;2022-08-14T02:14:49;23.90;1.00
21023;DHT22;10669;51.076;3.714;2022-08-14T02:17:14;23.90;1.00
21023;DHT22;10669;51.076;3.714;2022-08-14T02:19:40;23.80;1.00
21023;DHT22;10669;51.076;3.714;2022-08-14T02:22:06;23.80;1.00
21023;DHT22;10669;51.076;3.714;2022-08-14T02:24:31;23.80;1.00
21023;DHT22;10669;51.076;3.714;2022-08-14T02:26:58;23.70;1.00
21023;DHT22;10669;51.076;3.714;2022-08-14T02:29:27;23.60;1.00
21023;DHT22;10669;51.076;3.714;2022-08-14T02:31:55;23.60;1.00
21023;DHT22;10669;51.076;3.714;2022-08-14T02:34:27;23.60;1.00
21023;DHT22;10669;51.076;3.714;2022-08-14T02:37:06;23.50;1.00
21023;DHT22;10669;51.076;3.714;2022-08-14T02:39:36;23.60;1.00
21023;DHT22;10669;51.076;3.714;2022-08-14T02:42:02;23.50;1.00
21023;DHT22;10669;51.076;3.714;2022-08-14T02:44:29;23.40;1.00
21023;DHT22;10669;51.076;3.714;2022-08-14T02:46:54;23.20;1.00
21023;DHT22;10669;51.076;3.714;2022-08-14T02:49:22;23.00;1.00
21023;DHT22;10669;51.076;3.714;2022-08-14T02:51:51;23.00;1.00
21023;DHT22;10669;51.076;3.714;2022-08-14T02:54:16;23.20;1.00
21023;DHT22;10669;51.076;3.714;2022-08-14T02:56:42;23.20;1.00
21023;DHT22;10669;51.076;3.714;2022-08-14T02:59:08;23.20;1.00
21023;DHT22;10669;51.076;3.714;2022-08-14T03:01:35;23.10;1.00
21023;DHT22;10669;51.076;3.714;2022-08-14T03:04:02;23.20;1.00
21023;DHT22;10669;51.076;3.714;2022-08-14T03:06:31;23.00;1.00
21023;DHT22;10669;51.076;3.714;2022-08-14T03:08:57;22.90;1.00
21023;DHT22;10669;51.076;3.714;2022-08-14T03:11:24;23.00;1.00
21023;DHT22;10669;51.076;3.714;2022-08-14T03:13:51;22.90;1.00
21023;DHT22;10669;51.076;3.714;2022-08-14T03:16:20;22.80;1.00
21023;DHT22;10669;51.076;3.714;2022-08-14T03:18:47;22.80;1.00
21023;DHT22;10669;51.076;3.714;2022-08-14T03:21:16;22.70;1.00
21023;DHT22;10669;51.076;3.714;2022-08-14T03:23:44;22.60;1.00
21023;DHT22;10669;51.076;3.714;2022-08-14T03:26:14;22.40;1.00
21023;DHT22;10669;51.076;3.714;2022-08-14T03:28:46;22.50;1.00
21023;DHT22;10669;51.076;3.714;2022-08-14T03:31:12;22.50;1.00
21023;DHT22;10669;51.076;3.714;2022-08-14T03:33:42;22.40;1.00
21023;DHT22;10669;51.076;3.714;2022-08-14T03:36:10;22.40;1.00
21023;DHT22;10669;51.076;3.714;2022-08-14T03:38:42;22.30;1.00
21023;DHT22;10669;51.076;3.714;2022-08-14T03:41:13;22.40;1.00
21023;DHT22;10669;51.076;3.714;2022-08-14T03:43:42;22.20;24.40
21023;DHT22;10669;51.076;3.714;2022-08-14T03:46:08;22.20;86.50
21023;DHT22;10669;51.076;3.714;2022-08-14T03:48:36;22.20;14.20
21023;DHT22;10669;51.076;3.714;2022-08-14T03:51:03;22.20;33.20
21023;DHT22;10669;51.076;3.714;2022-08-14T03:53:29;22.10;99.90
21023;DHT22;10669;51.076;3.714;2022-08-14T03:55:56;22.30;58.60
21023;DHT22;10669;51.076;3.714;2022-08-14T03:58:23;22.40;92.20
21023;DHT22;10669;51.076;3.714;2022-08-14T04:00:49;22.40;71.80
21023;DHT22;10669;51.076;3.714;2022-08-14T04:03:14;22.40;67.90
21023;DHT22;10669;51.076;3.714;2022-08-14T04:05:40;22.30;89.80
21023;DHT22;10669;51.076;3.714;2022-08-14T04:08:10;22.40;71.30
21023;DHT22;10669;51.076;3.714;2022-08-14T04:10:36;22.40;95.20
21023;DHT22;10669;51.076;3.714;2022-08-14T04:13:03;22.40;93.50
21023;DHT22;10669;51.076;3.714;2022-08-14T04:15:33;22.40;96.10
21023;DHT22;10669;51.076;3.714;2022-08-14T04:18:05;22.30;25.80
21023;DHT22;10669;51.076;3.714;2022-08-14T04:20:33;22.10;70.90
21023;DHT22;10669;51.076;3.714;2022-08-14T04:22:59;21.80;99.90
21023;DHT22;10669;51.076;3.714;2022-08-14T04:25:24;21.70;99.90
21023;DHT22;10669;51.076;3.714;2022-08-14T04:27:50;21.60;99.90
21023;DHT22;10669;51.076;3.714;2022-08-14T04:30:15;21.50;99.90
21023;DHT22;10669;51.076;3.714;2022-08-14T04:32:41;21.70;99.90
21023;DHT22;10669;51.076;3.714;2022-08-14T04:35:07;21.90;99.90
21023;DHT22;10669;51.076;3.714;2022-08-14T04:37:32;21.90;99.90
21023;DHT22;10669;51.076;3.714;2022-08-14T04:40:16;22.00;99.90
21023;DHT22;10669;51.076;3.714;2022-08-14T04:43:00;21.80;99.90
21023;DHT22;10669;51.076;3.714;2022-08-14T04:45:44;21.80;99.90
21023;DHT22;10669;51.076;3.714;2022-08-14T04:48:12;21.50;99.90
21023;DHT22;10669;51.076;3.714;2022-08-14T04:50:42;21.50;99.90
21023;DHT22;10669;51.076;3.714;2022-08-14T04:53:10;21.30;1.00
21023;DHT22;10669;51.076;3.714;2022-08-14T04:55:38;21.50;1.00
21023;DHT22;10669;51.076;3.714;2022-08-14T04:58:03;21.60;99.90
21023;DHT22;10669;51.076;3.714;2022-08-14T05:00:30;21.80;99.90
21023;DHT22;10669;51.076;3.714;2022-08-14T05:02:57;21.80;99.90
21023;DHT22;10669;51.076;3.714;2022-08-14T05:05:23;21.50;99.90
21023;DHT22;10669;51.076;3.714;2022-08-14T05:07:51;21.40;1.00
21023;DHT22;10669;51.076;3.714;2022-08-14T05:10:16;21.60;1.00
21023;DHT22;10669;51.076;3.714;2022-08-14T05:12:48;21.70;99.90
21023;DHT22;10669;51.076;3.714;2022-08-14T05:15:14;21.70;99.90
21023;DHT22;10669;51.076;3.714;2022-08-14T05:17:43;21.50;1.00
21023;DHT22;10669;51.076;3.714;2022-08-14T05:20:09;21.50;99.90
21023;DHT22;10669;51.076;3.714;2022-08-14T05:22:35;21.40;1.00
21023;DHT22;10669;51.076;3.714;2022-08-14T05:25:02;21.30;1.00
21023;DHT22;10669;51.076;3.714;2022-08-14T05:27:30;21.50;1.00
21023;DHT22;10669;51.076;3.714;2022-08-14T05:29:55;21.50;1.00
21023;DHT22;10669;51.076;3.714;2022-08-14T05:32:22;21.80;99.90
21023;DHT22;10669;51.076;3.714;2022-08-14T05:34:48;22.10;99.90
21023;DHT22;10669;51.076;3.714;2022-08-14T05:37:14;22.20;99.90
21023;DHT22;10669;51.076;3.714;2022-08-14T05:39:39;22.20;99.90
21023;DHT22;10669;51.076;3.714;2022-08-14T05:42:09;21.90;99.90
21023;DHT22;10669;51.076;3.714;2022-08-14T05:44:34;21.90;99.90
21023;DHT22;10669;51.076;3.714;2022-08-14T05:47:00;22.00;99.90
21023;DHT22;10669;51.076;3.714;2022-08-14T05:49:27;22.20;99.90
21023;DHT22;10669;51.076;3.714;2022-08-14T05:51:53;22.20;99.90
21023;DHT22;10669;51.076;3.714;2022-08-14T05:54:18;22.20;99.90
21023;DHT22;10669;51.076;3.714;2022-08-14T05:56:44;22.30;99.90
21023;DHT22;10669;51.076;3.714;2022-08-14T05:59:10;22.10;99.90
21023;DHT22;10669;51.076;3.714;2022-08-14T06:01:36;22.10;99.90
21023;DHT22;10669;51.076;3.714;2022-08-14T06:04:02;22.30;99.90
21023;DHT22;10669;51.076;3.714;2022-08-14T06:06:28;22.60;99.90
21023;DHT22;10669;51.076;3.714;2022-08-14T06:08:53;22.70;99.90
21023;DHT22;10669;51.076;3.714;2022-08-14T06:11:19;22.60;99.90
21023;DHT22;10669;51.076;3.714;2022-08-14T06:13:44;22.70;99.90
21023;DHT22;10669;51.076;3.714;2022-08-14T06:16:10;22.80;99.90
21023;DHT22;10669;51.076;3.714;2022-08-14T06:18:36;23.00;99.90
21023;DHT22;10669;51.076;3.714;2022-08-14T06:21:04;22.90;99.90
21023;DHT22;10669;51.076;3.714;2022-08-14T06:23:30;23.00;99.90
21023;DHT22;10669;51.076;3.714;2022-08-14T06:25:55;22.90;99.90
21023;DHT22;10669;51.076;3.714;2022-08-14T06:28:23;22.90;99.90
21023;DHT22;10669;51.076;3.714;2022-08-14T06:30:50;23.10;99.90
21023;DHT22;10669;51.076;3.714;2022-08-14T06:33:17;23.10;99.90
21023;DHT22;10669;51.076;3.714;2022-08-14T06:35:43;23.10;99.90
21023;DHT22;10669;51.076;3.714;2022-08-14T06:38:17;22.90;99.90
21023;DHT22;10669;51.076;3.714;2022-08-14T06:40:44;23.10;99.90
21023;DHT22;10669;51.076;3.714;2022-08-14T06:43:11;23.10;99.90
21023;DHT22;10669;51.076;3.714;2022-08-14T06:45:39;23.30;99.90
21023;DHT22;10669;51.076;3.714;2022-08-14T06:48:18;23.30;99.90
21023;DHT22;10669;51.076;3.714;2022-08-14T06:50:45;23.50;93.40
21023;DHT22;10669;51.076;3.714;2022-08-14T06:53:11;23.80;58.10
21023;DHT22;10669;51.076;3.714;2022-08-14T06:55:39;23.60;47.20
21023;DHT22;10669;51.076;3.714;2022-08-14T06:58:10;23.40;92.00
21023;DHT22;10669;51.076;3.714;2022-08-14T07:00:36;23.50;56.00
21023;DHT22;10669;51.076;3.714;2022-08-14T07:03:01;23.80;31.00
21023;DHT22;10669;51.076;3.714;2022-08-14T07:05:46;23.80;29.50
21023;DHT22;10669;51.076;3.714;2022-08-14T07:08:16;23.90;21.20
21023;DHT22;10669;51.076;3.714;2022-08-14T07:10:47;24.00;21.20
21023;DHT22;10669;51.076;3.714;2022-08-14T07:13:15;24.00;19.40
21023;DHT22;10669;51.076;3.714;2022-08-14T07:15:44;24.00;21.30
21023;DHT22;10669;51.076;3.714;2022-08-14T07:18:11;24.30;20.80
21023;DHT22;10669;51.076;3.714;2022-08-14T07:20:39;24.50;5.20
21023;DHT22;10669;51.076;3.714;2022-08-14T07:23:07;24.50;19.60
21023;DHT22;10669;51.076;3.714;2022-08-14T07:25:34;24.40;1.00
21023;DHT22;10669;51.076;3.714;2022-08-14T07:28:01;24.30;1.00
21023;DHT22;10669;51.076;3.714;2022-08-14T07:30:32;24.50;1.00
21023;DHT22;10669;51.076;3.714;2022-08-14T07:32:58;24.70;1.00
21023;DHT22;10669;51.076;3.714;2022-08-14T07:35:23;24.70;1.00
21023;DHT22;10669;51.076;3.714;2022-08-14T07:37:49;24.80;1.00
21023;DHT22;10669;51.076;3.714;2022-08-14T07:40:15;24.90;1.00
21023;DHT22;10669;51.076;3.714;2022-08-14T07:42:41;25.10;1.00
21023;DHT22;10669;51.076;3.714;2022-08-14T07:45:07;25.20;1.00
21023;DHT22;10669;51.076;3.714;2022-08-14T07:47:38;25.30;1.00
21023;DHT22;10669;51.076;3.714;2022-08-14T07:50:11;25.20;1.00
21023;DHT22;10669;51.076;3.714;2022-08-14T07:52:38;25.30;1.00
21023;DHT22;10669;51.076;3.714;2022-08-14T07:55:05;25.30;1.00
21023;DHT22;10669;51.076;3.714;2022-08-14T07:57:32;25.30;1.00
21023;DHT22;10669;51.076;3.714;2022-08-14T07:59:58;25.60;1.00
21023;DHT22;10669;51.076;3.714;2022-08-14T08:02:26;25.60;1.00
21023;DHT22;10669;51.076;3.714;2022-08-14T08:04:52;25.50;1.00
21023;DHT22;10669;51.076;3.714;2022-08-14T08:07:23;25.50;1.00
21023;DHT22;10669;51.076;3.714;2022-08-14T08:09:52;25.70;1.00
21023;DHT22;10669;51.076;3.714;2022-08-14T08:12:20;25.90;1.00
21023;DHT22;10669;51.076;3.714;2022-08-14T08:14:47;26.10;1.00
21023;DHT22;10669;51.076;3.714;2022-08-14T08:17:18;26.40;1.00
21023;DHT22;10669;51.076;3.714;2022-08-14T08:19:45;26.60;1.00
21023;DHT22;10669;51.076;3.714;2022-08-14T08:22:14;26.60;1.00
21023;DHT22;10669;51.076;3.714;2022-08-14T08:24:40;26.50;1.00
21023;DHT22;10669;51.076;3.714;2022-08-14T08:27:16;26.70;1.00
21023;DHT22;10669;51.076;3.714;2022-08-14T08:29:44;27.00;1.00
21023;DHT22;10669;51.076;3.714;2022-08-14T08:32:09;27.00;1.00
21023;DHT22;10669;51.076;3.714;2022-08-14T08:34:45;27.00;1.00
21023;DHT22;10669;51.076;3.714;2022-08-14T08:37:12;27.10;1.00
21023;DHT22;10669;51.076;3.714;2022-08-14T08:39:45;27.10;1.00
21023;DHT22;10669;51.076;3.714;2022-08-14T08:42:11;27.40;1.00
21023;DHT22;10669;51.076;3.714;2022-08-14T08:44:37;27.50;1.00
21023;DHT22;10669;51.076;3.714;2022-08-14T08:47:03;27.60;1.00
21023;DHT22;10669;51.076;3.714;2022-08-14T08:49:41;27.70;1.00
21023;DHT22;10669;51.076;3.714;2022-08-14T08:52:07;28.00;1.00
21023;DHT22;10669;51.076;3.714;2022-08-14T08:54:34;28.00;1.00
21023;DHT22;10669;51.076;3.714;2022-08-14T08:56:59;28.00;1.00
21023;DHT22;10669;51.076;3.714;2022-08-14T08:59:27;28.00;1.00
21023;DHT22;10669;51.076;3.714;2022-08-14T09:02:01;28.30;1.00
21023;DHT22;10669;51.076;3.714;2022-08-14T09:04:33;28.30;1.00
21023;DHT22;10669;51.076;3.714;2022-08-14T09:06:59;28.30;1.00
21023;DHT22;10669;51.076;3.714;2022-08-14T09:09:26;28.40;1.00
21023;DHT22;10669;51.076;3.714;2022-08-14T09:11:54;28.30;1.00
21023;DHT22;10669;51.076;3.714;2022-08-14T09:14:24;28.40;1.00
21023;DHT22;10669;51.076;3.714;2022-08-14T09:16:50;28.70;1.00
21023;DHT22;10669;51.076;3.714;2022-08-14T09:19:16;28.90;1.00
21023;DHT22;10669;51.076;3.714;2022-08-14T09:21:42;29.00;1.00
21023;DHT22;10669;51.076;3.714;2022-08-14T09:24:08;29.00;1.00
21023;DHT22;10669;51.076;3.714;2022-08-14T09:26:35;29.10;1.00
21023;DHT22;10669;51.076;3.714;2022-08-14T09:29:02;29.40;1.00
21023;DHT22;10669;51.076;3.714;2022-08-14T09:31:28;29.60;1.00
21023;DHT22;10669;51.076;3.714;2022-08-14T09:34:20;29.60;1.00
21023;DHT22;10669;51.076;3.714;2022-08-14T09:36:52;29.70;1.00
21023;DHT22;10669;51.076;3.714;2022-08-14T09:39:40;29.90;1.00
21023;DHT22;10669;51.076;3.714;2022-08-14T09:42:34;29.90;1.00
21023;DHT22;10669;51.076;3.714;2022-08-14T09:45:16;30.00;1.00
21023;DHT22;10669;51.076;3.714;2022-08-14T09:47:52;30.00;1.00
21023;DHT22;10669;51.076;3.714;2022-08-14T09:50:28;30.00;1.00
21023;DHT22;10669;51.076;3.714;2022-08-14T09:53:00;30.20;1.00
21023;DHT22;10669;51.076;3.714;2022-08-14T09:55:30;30.30;1.00
21023;DHT22;10669;51.076;3.714;2022-08-14T09:58:19;30.40;1.00
21023;DHT22;10669;51.076;3.714;2022-08-14T10:00:54;30.80;1.00
21023;DHT22;10669;51.076;3.714;2022-08-14T10:03:29;31.10;1.00
21023;DHT22;10669;51.076;3.714;2022-08-14T10:06:06;31.30;1.00
21023;DHT22;10669;51.076;3.714;2022-08-14T10:08:42;31.40;1.00
21023;DHT22;10669;51.076;3.714;2022-08-14T10:11:13;31.50;1.00
21023;DHT22;10669;51.076;3.714;2022-08-14T10:13:41;31.40;1.00
21023;DHT22;10669;51.076;3.714;2022-08-14T10:16:07;31.40;1.00
21023;DHT22;10669;51.076;3.714;2022-08-14T10:18:33;31.50;1.00
21023;DHT22;10669;51.076;3.714;2022-08-14T10:21:00;31.70;1.00
21023;DHT22;10669;51.076;3.714;2022-08-14T10:23:28;32.00;1.00
21023;DHT22;10669;51.076;3.714;2022-08-14T10:26:05;32.30;1.00
21023;DHT22;10669;51.076;3.714;2022-08-14T10:28:46;32.30;1.00
21023;DHT22;10669;51.076;3.714;2022-08-14T10:31:26;32.40;1.00
21023;DHT22;10669;51.076;3.714;2022-08-14T10:34:01;32.50;1.00
21023;DHT22;10669;51.076;3.714;2022-08-14T10:36:34;32.60;1.00
21023;DHT22;10669;51.076;3.714;2022-08-14T10:39:23;32.50;1.00
21023;DHT22;10669;51.076;3.714;2022-08-14T10:41:59;32.30;1.00
21023;DHT22;10669;51.076;3.714;2022-08-14T10:44:38;32.30;1.00
21023;DHT22;10669;51.076;3.714;2022-08-14T10:47:08;32.20;1.00
21023;DHT22;10669;51.076;3.714;2022-08-14T10:49:56;32.10;1.00
21023;DHT22;10669;51.076;3.714;2022-08-14T10:52:25;32.10;1.00
21023;DHT22;10669;51.076;3.714;2022-08-14T10:54:52;32.00;1.00
21023;DHT22;10669;51.076;3.714;2022-08-14T10:57:19;31.90;1.00
21023;DHT22;10669;51.076;3.714;2022-08-14T11:02:29;32.10;1.00
21023;DHT22;10669;51.076;3.714;2022-08-14T11:05:05;32.10;1.00
21023;DHT22;10669;51.076;3.714;2022-08-14T11:07:33;32.00;1.00
21023;DHT22;10669;51.076;3.714;2022-08-14T11:10:05;32.00;1.00
21023;DHT22;10669;51.076;3.714;2022-08-14T11:12:49;31.70;1.00
21023;DHT22;10669;51.076;3.714;2022-08-14T11:15:20;31.70;1.00
21023;DHT22;10669;51.076;3.714;2022-08-14T11:17:47;31.70;1.00
21023;DHT22;10669;51.076;3.714;2022-08-14T11:20:15;31.60;1.00
21023;DHT22;10669;51.076;3.714;2022-08-14T11:22:41;31.70;1.00
21023;DHT22;10669;51.076;3.714;2022-08-14T11:25:10;31.80;1.00
21023;DHT22;10669;51.076;3.714;2022-08-14T11:27:38;31.90;1.00
21023;DHT22;10669;51.076;3.714;2022-08-14T11:30:08;31.90;1.00
21023;DHT22;10669;51.076;3.714;2022-08-14T11:32:34;31.90;1.00
21023;DHT22;10669;51.076;3.714;2022-08-14T11:35:00;32.00;1.00
21023;DHT22;10669;51.076;3.714;2022-08-14T11:37:28;32.00;1.00
21023;DHT22;10669;51.076;3.714;2022-08-14T11:39:58;31.90;1.00
21023;DHT22;10669;51.076;3.714;2022-08-14T11:42:26;32.00;1.00
21023;DHT22;10669;51.076;3.714;2022-08-14T11:44:56;31.90;1.00
21023;DHT22;10669;51.076;3.714;2022-08-14T11:47:23;31.90;1.00
21023;DHT22;10669;51.076;3.714;2022-08-14T11:49:49;31.90;1.00
21023;DHT22;10669;51.076;3.714;2022-08-14T11:52:15;31.90;1.00
21023;DHT22;10669;51.076;3.714;2022-08-14T11:54:56;31.70;1.00
21023;DHT22;10669;51.076;3.714;2022-08-14T11:57:22;31.50;1.00
21023;DHT22;10669;51.076;3.714;2022-08-14T11:59:47;31.40;1.00
21023;DHT22;10669;51.076;3.714;2022-08-14T12:02:15;31.50;1.00
21023;DHT22;10669;51.076;3.714;2022-08-14T12:04:51;31.70;1.00
21023;DHT22;10669;51.076;3.714;2022-08-14T12:07:18;31.70;1.00
21023;DHT22;10669;51.076;3.714;2022-08-14T12:09:45;31.70;1.00
21023;DHT22;10669;51.076;3.714;2022-08-14T12:12:24;31.80;1.00
21023;DHT22;10669;51.076;3.714;2022-08-14T12:14:58;32.10;1.00
21023;DHT22;10669;51.076;3.714;2022-08-14T12:17:28;32.30;1.00
21023;DHT22;10669;51.076;3.714;2022-08-14T12:19:57;32.30;1.00
21023;DHT22;10669;51.076;3.714;2022-08-14T12:22:39;32.40;1.00
21023;DHT22;10669;51.076;3.714;2022-08-14T12:25:08;32.70;1.00
21023;DHT22;10669;51.076;3.714;2022-08-14T12:27:38;33.00;1.00
21023;DHT22;10669;51.076;3.714;2022-08-14T12:30:05;33.20;1.00
21023;DHT22;10669;51.076;3.714;2022-08-14T12:32:42;33.30;1.00
21023;DHT22;10669;51.076;3.714;2022-08-14T12:35:09;33.60;1.00
21023;DHT22;10669;51.076;3.714;2022-08-14T12:37:35;33.80;1.00
21023;DHT22;10669;51.076;3.714;2022-08-14T12:40:12;33.90;1.00
21023;DHT22;10669;51.076;3.714;2022-08-14T12:42:39;34.00;1.00
21023;DHT22;10669;51.076;3.714;2022-08-14T12:45:05;34.00;1.00
21023;DHT22;10669;51.076;3.714;2022-08-14T12:47:32;33.80;1.00
21023;DHT22;10669;51.076;3.714;2022-08-14T12:49:58;33.60;1.00
21023;DHT22;10669;51.076;3.714;2022-08-14T12:52:33;33.50;1.00
21023;DHT22;10669;51.076;3.714;2022-08-14T12:55:02;34.00;1.00
21023;DHT22;10669;51.076;3.714;2022-08-14T12:57:37;34.30;1.00
21023;DHT22;10669;51.076;3.714;2022-08-14T13:02:38;34.90;1.00
21023;DHT22;10669;51.076;3.714;2022-08-14T13:05:04;35.10;1.00
21023;DHT22;10669;51.076;3.714;2022-08-14T13:07:30;35.20;1.00
21023;DHT22;10669;51.076;3.714;2022-08-14T13:09:56;34.90;1.00
21023;DHT22;10669;51.076;3.714;2022-08-14T13:12:23;34.90;1.00
21023;DHT22;10669;51.076;3.714;2022-08-14T13:14:56;35.10;1.00
21023;DHT22;10669;51.076;3.714;2022-08-14T13:17:23;35.10;1.00
21023;DHT22;10669;51.076;3.714;2022-08-14T13:19:52;34.70;1.00
21023;DHT22;10669;51.076;3.714;2022-08-14T13:22:22;34.70;1.00
21023;DHT22;10669;51.076;3.714;2022-08-14T13:24:51;34.80;1.00
21023;DHT22;10669;51.076;3.714;2022-08-14T13:27:23;34.90;1.00
21023;DHT22;10669;51.076;3.714;2022-08-14T13:29:51;34.90;1.00
21023;DHT22;10669;51.076;3.714;2022-08-14T13:32:18;35.10;1.00
21023;DHT22;10669;51.076;3.714;2022-08-14T13:34:47;35.20;1.00
21023;DHT22;10669;51.076;3.714;2022-08-14T13:37:17;35.20;1.00
21023;DHT22;10669;51.076;3.714;2022-08-14T13:39:50;35.00;1.00
21023;DHT22;10669;51.076;3.714;2022-08-14T13:42:21;34.70;1.00
21023;DHT22;10669;51.076;3.714;2022-08-14T13:44:52;34.80;1.00
21023;DHT22;10669;51.076;3.714;2022-08-14T13:47:20;34.90;1.00
21023;DHT22;10669;51.076;3.714;2022-08-14T13:49:46;35.10;1.00
21023;DHT22;10669;51.076;3.714;2022-08-14T13:52:15;35.20;1.00
21023;DHT22;10669;51.076;3.714;2022-08-14T13:54:44;35.30;1.00
21023;DHT22;10669;51.076;3.714;2022-08-14T13:57:11;34.90;1.00
21023;DHT22;10669;51.076;3.714;2022-08-14T13:59:42;34.70;1.00
21023;DHT22;10669;51.076;3.714;2022-08-14T14:02:08;34.60;1.00
21023;DHT22;10669;51.076;3.714;2022-08-14T14:04:41;34.30;1.00
21023;DHT22;10669;51.076;3.714;2022-08-14T14:07:12;34.40;1.00
21023;DHT22;10669;51.076;3.714;2022-08-14T14:09:42;34.60;1.00
21023;DHT22;10669;51.076;3.714;2022-08-14T14:12:09;34.60;1.00
21023;DHT22;10669;51.076;3.714;2022-08-14T14:14:35;34.60;1.00
21023;DHT22;10669;51.076;3.714;2022-08-14T14:17:07;34.90;1.00
21023;DHT22;10669;51.076;3.714;2022-08-14T14:19:33;35.20;1.00
21023;DHT22;10669;51.076;3.714;2022-08-14T14:22:03;35.30;1.00
21023;DHT22;10669;51.076;3.714;2022-08-14T14:24:31;35.70;1.00
21023;DHT22;10669;51.076;3.714;2022-08-14T14:27:00;35.20;1.00
21023;DHT22;10669;51.076;3.714;2022-08-14T14:29:29;35.40;1.00
21023;DHT22;10669;51.076;3.714;2022-08-14T14:31:58;35.50;1.00
21023;DHT22;10669;51.076;3.714;2022-08-14T14:34:25;35.60;1.00
21023;DHT22;10669;51.076;3.714;2022-08-14T14:36:51;35.80;1.00
21023;DHT22;10669;51.076;3.714;2022-08-14T14:39:22;36.10;1.00
21023;DHT22;10669;51.076;3.714;2022-08-14T14:41:51;36.30;1.00
21023;DHT22;10669;51.076;3.714;2022-08-14T14:44:24;36.10;1.00
21023;DHT22;10669;51.076;3.714;2022-08-14T14:46:50;36.00;1.00
21023;DHT22;10669;51.076;3.714;2022-08-14T14:49:21;35.40;1.00
21023;DHT22;10669;51.076;3.714;2022-08-14T14:51:48;35.60;1.00
21023;DHT22;10669;51.076;3.714;2022-08-14T14:54:15;35.60;1.00
21023;DHT22;10669;51.076;3.714;2022-08-14T14:56:42;35.30;1.00
21023;DHT22;10669;51.076;3.714;2022-08-14T14:59:07;35.20;1.00
21023;DHT22;10669;51.076;3.714;2022-08-14T15:01:34;35.30;1.00
21023;DHT22;10669;51.076;3.714;2022-08-14T15:04:00;34.90;1.00
21023;DHT22;10669;51.076;3.714;2022-08-14T15:06:28;35.00;1.00
21023;DHT22;10669;51.076;3.714;2022-08-14T15:08:57;35.10;1.00
21023;DHT22;10669;51.076;3.714;2022-08-14T15:11:22;35.00;1.00
21023;DHT22;10669;51.076;3.714;2022-08-14T15:13:48;35.10;1.00
21023;DHT22;10669;51.076;3.714;2022-08-14T15:16:14;35.00;1.00
21023;DHT22;10669;51.076;3.714;2022-08-14T15:18:40;34.90;1.00
21023;DHT22;10669;51.076;3.714;2022-08-14T15:21:06;34.70;1.00
21023;DHT22;10669;51.076;3.714;2022-08-14T15:23:33;34.90;1.00
21023;DHT22;10669;51.076;3.714;2022-08-14T15:25:59;34.70;1.00
21023;DHT22;10669;51.076;3.714;2022-08-14T15:28:25;34.70;1.00
21023;DHT22;10669;51.076;3.714;2022-08-14T15:30:52;34.50;1.00
21023;DHT22;10669;51.076;3.714;2022-08-14T15:33:19;34.20;1.00
21023;DHT22;10669;51.076;3.714;2022-08-14T15:36:03;34.10;1.00
21023;DHT22;10669;51.076;3.714;2022-08-14T15:38:29;34.10;1.00
21023;DHT22;10669;51.076;3.714;2022-08-14T15:40:56;34.40;1.00
21023;DHT22;10669;51.076;3.714;2022-08-14T15:43:23;34.50;1.00
21023;DHT22;10669;51.076;3.714;2022-08-14T15:45:51;34.50;1.00
21023;DHT22;10669;51.076;3.714;2022-08-14T15:48:17;34.50;1.00
21023;DHT22;10669;51.076;3.714;2022-08-14T15:50:43;34.40;1.00
21023;DHT22;10669;51.076;3.714;2022-08-14T15:53:09;34.60;1.00
21023;DHT22;10669;51.076;3.714;2022-08-14T15:55:35;34.70;1.00
21023;DHT22;10669;51.076;3.714;2022-08-14T15:58:02;34.60;1.00